sensor_id;sensor_type;location;lat;lon;timestamp;pressure;altitude;pressure_sealevel;temperature;humidity
63088;BME280;49173;43.164;27.786;2023-02-10T00:01:20;102839.56;;;-4.55;67.45
63088;BME280;49173;43.164;27.786;2023-02-10T00:03:46;102837.78;;;-4.56;67.64
63088;BME280;49173;43.164;27.786;2023-02-10T00:06:13;102836.94;;;-4.55;67.17
63088;BME280;49173;43.164;27.786;2023-02-10T00:08:39;102842.84;;;-4.59;67.33
63088;BME280;49173;43.164;27.786;2023-02-10T00:11:08;102845.41;;;-4.61;67.46
63088;BME280;49173;43.164;27.786;2023-02-10T00:13:36;102839.00;;;-4.67;67.65
63088;BME280;49173;43.164;27.786;2023-02-10T00:16:05;102834.56;;;-4.68;67.49
63088;BME280;49173;43.164;27.786;2023-02-10T00:18:31;102835.41;;;-4.70;67.71
63088;BME280;49173;43.164;27.786;2023-02-10T00:21:08;102833.75;;;-4.67;67.87
63088;BME280;49173;43.164;27.786;2023-02-10T00:23:34;102834.44;;;-4.72;68.46
63088;BME280;49173;43.164;27.786;2023-02-10T00:26:04;102837.06;;;-4.72;68.09
63088;BME280;49173;43.164;27.786;2023-02-10T00:28:33;102835.25;;;-4.73;68.02
63088;BME280;49173;43.164;27.786;2023-02-10T00:31:07;102830.72;;;-4.77;68.61
63088;BME280;49173;43.164;27.786;2023-02-10T00:33:33;102827.47;;;-4.71;67.95
63088;BME280;49173;43.164;27.786;2023-02-10T00:36:03;102823.97;;;-4.72;67.92
63088;BME280;49173;43.164;27.786;2023-02-10T00:38:30;102821.34;;;-4.72;68.21
63088;BME280;49173;43.164;27.786;2023-02-10T00:40:55;102815.22;;;-4.72;68.12
63088;BME280;49173;43.164;27.786;2023-02-10T00:43:26;102817.00;;;-4.71;68.17
63088;BME280;49173;43.164;27.786;2023-02-10T00:45:52;102820.34;;;-4.74;68.81
63088;BME280;49173;43.164;27.786;2023-02-10T00:48:17;102812.50;;;-4.74;68.43
63088;BME280;49173;43.164;27.786;2023-02-10T00:50:43;102814.38;;;-4.71;68.08
63088;BME280;49173;43.164;27.786;2023-02-10T00:53:09;102809.97;;;-4.72;68.18
63088;BME280;49173;43.164;27.786;2023-02-10T00:55:35;102811.75;;;-4.71;68.30
63088;BME280;49173;43.164;27.786;2023-02-10T00:58:00;102820.47;;;-4.72;67.79
63088;BME280;49173;43.164;27.786;2023-02-10T01:00:26;102808.91;;;-4.76;68.43
63088;BME280;49173;43.164;27.786;2023-02-10T01:02:52;102816.72;;;-4.77;68.73
63088;BME280;49173;43.164;27.786;2023-02-10T01:05:17;102815.81;;;-4.78;68.10
63088;BME280;49173;43.164;27.786;2023-02-10T01:07:44;102806.00;;;-4.82;68.60
63088;BME280;49173;43.164;27.786;2023-02-10T01:10:10;102805.19;;;-4.81;68.45
63088;BME280;49173;43.164;27.786;2023-02-10T01:12:36;102815.38;;;-4.87;68.17
63088;BME280;49173;43.164;27.786;2023-02-10T01:15:01;102810.28;;;-4.84;68.16
63088;BME280;49173;43.164;27.786;2023-02-10T01:17:27;102804.22;;;-4.83;68.54
63088;BME280;49173;43.164;27.786;2023-02-10T01:19:53;102814.56;;;-4.86;68.08
63088;BME280;49173;43.164;27.786;2023-02-10T01:22:19;102807.59;;;-4.85;67.95
63088;BME280;49173;43.164;27.786;2023-02-10T01:24:45;102811.78;;;-4.89;68.03
63088;BME280;49173;43.164;27.786;2023-02-10T01:27:10;102801.19;;;-4.92;68.01
63088;BME280;49173;43.164;27.786;2023-02-10T01:29:36;102803.03;;;-4.89;67.77
63088;BME280;49173;43.164;27.786;2023-02-10T01:32:02;102803.63;;;-4.95;68.08
63088;BME280;49173;43.164;27.786;2023-02-10T01:34:28;102799.09;;;-4.99;67.61
63088;BME280;49173;43.164;27.786;2023-02-10T01:36:53;102799.63;;;-5.06;68.14
63088;BME280;49173;43.164;27.786;2023-02-10T01:39:19;102798.38;;;-5.14;68.50
63088;BME280;49173;43.164;27.786;2023-02-10T01:41:45;102799.34;;;-5.12;68.38
63088;BME280;49173;43.164;27.786;2023-02-10T01:46:47;102793.03;;;-5.16;69.24
63088;BME280;49173;43.164;27.786;2023-02-10T01:49:16;102793.28;;;-5.11;69.00
63088;BME280;49173;43.164;27.786;2023-02-10T01:51:47;102807.19;;;-5.12;68.57
63088;BME280;49173;43.164;27.786;2023-02-10T01:54:20;102796.56;;;-5.15;68.30
63088;BME280;49173;43.164;27.786;2023-02-10T01:56:48;102792.06;;;-5.18;69.03
63088;BME280;49173;43.164;27.786;2023-02-10T01:59:15;102790.06;;;-5.23;69.22
63088;BME280;49173;43.164;27.786;2023-02-10T02:01:41;102793.66;;;-5.21;69.18
63088;BME280;49173;43.164;27.786;2023-02-10T02:04:07;102795.59;;;-5.17;69.55
63088;BME280;49173;43.164;27.786;2023-02-10T02:06:33;102793.56;;;-5.23;69.05
63088;BME280;49173;43.164;27.786;2023-02-10T02:09:00;102789.22;;;-5.22;69.48
63088;BME280;49173;43.164;27.786;2023-02-10T02:14:14;102787.59;;;-5.20;69.59
63088;BME280;49173;43.164;27.786;2023-02-10T02:32:21;102764.47;;;-5.29;69.99
63088;BME280;49173;43.164;27.786;2023-02-10T02:35:24;102758.16;;;-5.34;69.56
63088;BME280;49173;43.164;27.786;2023-02-10T02:37:45;102768.81;;;-5.30;69.89
63088;BME280;49173;43.164;27.786;2023-02-10T02:40:14;102775.94;;;-5.27;69.84
63088;BME280;49173;43.164;27.786;2023-02-10T02:42:40;102768.75;;;-5.31;69.63
63088;BME280;49173;43.164;27.786;2023-02-10T02:45:33;102770.47;;;-5.32;69.62
63088;BME280;49173;43.164;27.786;2023-02-10T02:51:10;102770.25;;;-5.36;69.39
63088;BME280;49173;43.164;27.786;2023-02-10T02:53:45;102774.44;;;-5.40;69.86
63088;BME280;49173;43.164;27.786;2023-02-10T02:58:59;102763.53;;;-5.49;70.19
63088;BME280;49173;43.164;27.786;2023-02-10T03:01:33;102760.22;;;-5.45;70.49
63088;BME280;49173;43.164;27.786;2023-02-10T03:04:01;102761.06;;;-5.46;70.28
63088;BME280;49173;43.164;27.786;2023-02-10T03:06:28;102761.06;;;-5.46;70.73
63088;BME280;49173;43.164;27.786;2023-02-10T03:08:54;102765.47;;;-5.45;70.72
63088;BME280;49173;43.164;27.786;2023-02-10T03:11:20;102761.13;;;-5.44;69.94
63088;BME280;49173;43.164;27.786;2023-02-10T03:13:46;102773.47;;;-5.42;69.78
63088;BME280;49173;43.164;27.786;2023-02-10T03:16:12;102759.41;;;-5.44;69.62
63088;BME280;49173;43.164;27.786;2023-02-10T03:18:38;102761.13;;;-5.44;70.09
63088;BME280;49173;43.164;27.786;2023-02-10T03:21:04;102751.50;;;-5.45;70.08
63088;BME280;49173;43.164;27.786;2023-02-10T03:23:30;102744.53;;;-5.45;69.55
63088;BME280;49173;43.164;27.786;2023-02-10T03:26:00;102747.75;;;-5.50;70.04
63088;BME280;49173;43.164;27.786;2023-02-10T03:28:25;102740.06;;;-5.47;70.00
63088;BME280;49173;43.164;27.786;2023-02-10T03:30:51;102738.16;;;-5.50;69.57
63088;BME280;49173;43.164;27.786;2023-02-10T03:33:18;102743.50;;;-5.48;70.35
63088;BME280;49173;43.164;27.786;2023-02-10T03:35:45;102731.91;;;-5.54;69.63
63088;BME280;49173;43.164;27.786;2023-02-10T03:38:12;102727.50;;;-5.55;69.62
63088;BME280;49173;43.164;27.786;2023-02-10T03:40:37;102724.13;;;-5.52;69.49
63088;BME280;49173;43.164;27.786;2023-02-10T03:43:04;102728.41;;;-5.54;69.08
63088;BME280;49173;43.164;27.786;2023-02-10T03:45:30;102725.47;;;-5.60;69.58
63088;BME280;49173;43.164;27.786;2023-02-10T03:47:55;102729.75;;;-5.62;69.91
63088;BME280;49173;43.164;27.786;2023-02-10T03:50:21;102731.47;;;-5.63;69.09
63088;BME280;49173;43.164;27.786;2023-02-10T03:52:47;102730.59;;;-5.63;69.52
63088;BME280;49173;43.164;27.786;2023-02-10T03:55:13;102726.13;;;-5.64;69.55
63088;BME280;49173;43.164;27.786;2023-02-10T03:57:45;102724.16;;;-5.70;69.58
63088;BME280;49173;43.164;27.786;2023-02-10T04:00:11;102717.84;;;-5.73;69.33
63088;BME280;49173;43.164;27.786;2023-02-10T04:02:37;102709.63;;;-5.81;69.84
63088;BME280;49173;43.164;27.786;2023-02-10T04:05:03;102711.44;;;-5.80;69.60
63088;BME280;49173;43.164;27.786;2023-02-10T04:07:29;102715.75;;;-5.81;69.49
63088;BME280;49173;43.164;27.786;2023-02-10T04:09:55;102709.56;;;-5.83;69.74
63088;BME280;49173;43.164;27.786;2023-02-10T04:12:22;102701.56;;;-5.86;69.54
63088;BME280;49173;43.164;27.786;2023-02-10T04:14:48;102703.38;;;-5.85;69.64
63088;BME280;49173;43.164;27.786;2023-02-10T04:17:14;102703.28;;;-5.86;70.06
63088;BME280;49173;43.164;27.786;2023-02-10T04:19:39;102716.44;;;-5.85;69.74
63088;BME280;49173;43.164;27.786;2023-02-10T04:22:05;102706.00;;;-5.85;69.97
63088;BME280;49173;43.164;27.786;2023-02-10T04:24:31;102706.06;;;-5.83;69.09
63088;BME280;49173;43.164;27.786;2023-02-10T04:26:56;102707.53;;;-5.88;69.74
63088;BME280;49173;43.164;27.786;2023-02-10T04:29:22;102704.66;;;-5.94;69.28
63088;BME280;49173;43.164;27.786;2023-02-10T04:31:48;102701.97;;;-5.96;69.69
63088;BME280;49173;43.164;27.786;2023-02-10T04:34:14;102709.81;;;-5.96;69.92
63088;BME280;49173;43.164;27.786;2023-02-10T04:36:39;102704.59;;;-5.96;69.64
63088;BME280;49173;43.164;27.786;2023-02-10T04:39:05;102699.28;;;-5.97;69.70
63088;BME280;49173;43.164;27.786;2023-02-10T04:41:31;102709.69;;;-5.99;69.66
63088;BME280;49173;43.164;27.786;2023-02-10T04:43:57;102701.66;;;-6.02;69.78
63088;BME280;49173;43.164;27.786;2023-02-10T04:46:22;102700.69;;;-6.04;70.32
63088;BME280;49173;43.164;27.786;2023-02-10T04:48:50;102709.44;;;-6.03;70.60
63088;BME280;49173;43.164;27.786;2023-02-10T04:51:16;102711.97;;;-6.05;70.47
63088;BME280;49173;43.164;27.786;2023-02-10T04:53:41;102709.69;;;-5.99;69.93
63088;BME280;49173;43.164;27.786;2023-02-10T04:56:13;102707.13;;;-5.97;70.46
63088;BME280;49173;43.164;27.786;2023-02-10T04:58:39;102714.66;;;-6.03;70.07
63088;BME280;49173;43.164;27.786;2023-02-10T05:01:05;102718.94;;;-6.05;70.10
63088;BME280;49173;43.164;27.786;2023-02-10T05:03:31;102715.78;;;-5.98;69.96
63088;BME280;49173;43.164;27.786;2023-02-10T05:05:57;102715.88;;;-5.97;69.95
63088;BME280;49173;43.164;27.786;2023-02-10T05:08:22;102713.19;;;-5.98;70.21
63088;BME280;49173;43.164;27.786;2023-02-10T05:10:50;102711.53;;;-5.96;70.00
63088;BME280;49173;43.164;27.786;2023-02-10T05:13:16;102718.47;;;-5.97;70.07
63088;BME280;49173;43.164;27.786;2023-02-10T05:15:42;102719.00;;;-6.04;69.43
63088;BME280;49173;43.164;27.786;2023-02-10T05:18:07;102711.47;;;-5.98;69.60
63088;BME280;49173;43.164;27.786;2023-02-10T05:20:33;102704.72;;;-5.93;70.00
63088;BME280;49173;43.164;27.786;2023-02-10T05:22:59;102715.28;;;-5.91;69.27
63088;BME280;49173;43.164;27.786;2023-02-10T05:25:24;102704.03;;;-5.89;69.74
63088;BME280;49173;43.164;27.786;2023-02-10T05:27:51;102705.06;;;-5.85;69.79
63088;BME280;49173;43.164;27.786;2023-02-10T05:30:16;102711.44;;;-5.80;69.27
63088;BME280;49173;43.164;27.786;2023-02-10T05:32:42;102712.25;;;-5.81;69.05
63088;BME280;49173;43.164;27.786;2023-02-10T05:35:09;102720.34;;;-5.76;68.78
63088;BME280;49173;43.164;27.786;2023-02-10T05:37:35;102720.41;;;-5.75;68.18
63088;BME280;49173;43.164;27.786;2023-02-10T05:40:02;102723.09;;;-5.73;68.31
63088;BME280;49173;43.164;27.786;2023-02-10T05:42:28;102731.09;;;-5.70;68.36
63088;BME280;49173;43.164;27.786;2023-02-10T05:44:54;102722.56;;;-5.66;68.19
63088;BME280;49173;43.164;27.786;2023-02-10T05:47:20;102729.75;;;-5.62;68.34
63088;BME280;49173;43.164;27.786;2023-02-10T05:49:45;102723.31;;;-5.51;68.17
63088;BME280;49173;43.164;27.786;2023-02-10T05:52:11;102721.69;;;-5.49;68.56
63088;BME280;49173;43.164;27.786;2023-02-10T05:54:37;102730.72;;;-5.42;68.04
63088;BME280;49173;43.164;27.786;2023-02-10T05:57:06;102736.31;;;-5.35;67.96
63088;BME280;49173;43.164;27.786;2023-02-10T05:59:32;102732.13;;;-5.31;67.31
63088;BME280;49173;43.164;27.786;2023-02-10T06:01:58;102731.28;;;-5.30;67.34
63088;BME280;49173;43.164;27.786;2023-02-10T06:04:24;102723.06;;;-5.20;67.14
63088;BME280;49173;43.164;27.786;2023-02-10T06:06:50;102731.09;;;-5.15;67.13
63088;BME280;49173;43.164;27.786;2023-02-10T06:09:16;102724.38;;;-5.10;67.29
63088;BME280;49173;43.164;27.786;2023-02-10T06:11:41;102723.72;;;-5.06;67.73
63088;BME280;49173;43.164;27.786;2023-02-10T06:14:32;102735.44;;;-4.98;67.53
63088;BME280;49173;43.164;27.786;2023-02-10T06:16:58;102732.25;;;-4.91;67.57
63088;BME280;49173;43.164;27.786;2023-02-10T06:19:23;102735.28;;;-4.82;67.48
63088;BME280;49173;43.164;27.786;2023-02-10T06:21:49;102736.34;;;-4.78;66.62
63088;BME280;49173;43.164;27.786;2023-02-10T06:24:15;102734.06;;;-4.71;66.89
63088;BME280;49173;43.164;27.786;2023-02-10T06:26:41;102731.59;;;-4.48;67.39
63088;BME280;49173;43.164;27.786;2023-02-10T06:29:07;102733.81;;;-4.17;65.14
63088;BME280;49173;43.164;27.786;2023-02-10T06:31:33;102722.38;;;-3.98;65.14
63088;BME280;49173;43.164;27.786;2023-02-10T06:33:58;102723.00;;;-3.83;64.33
63088;BME280;49173;43.164;27.786;2023-02-10T06:36:24;102716.50;;;-3.72;64.76
63088;BME280;49173;43.164;27.786;2023-02-10T06:38:50;102724.94;;;-3.58;63.67
63088;BME280;49173;43.164;27.786;2023-02-10T06:41:16;102728.25;;;-3.62;63.71
63088;BME280;49173;43.164;27.786;2023-02-10T06:43:42;102735.44;;;-3.58;63.86
63088;BME280;49173;43.164;27.786;2023-02-10T06:46:08;102730.75;;;-3.44;62.90
63088;BME280;49173;43.164;27.786;2023-02-10T06:48:36;102731.00;;;-3.38;63.27
63088;BME280;49173;43.164;27.786;2023-02-10T06:51:02;102734.56;;;-3.36;63.37
63088;BME280;49173;43.164;27.786;2023-02-10T06:53:28;102733.53;;;-3.40;63.56
63088;BME280;49173;43.164;27.786;2023-02-10T06:55:57;102732.09;;;-3.32;64.05
63088;BME280;49173;43.164;27.786;2023-02-10T06:58:23;102728.72;;;-3.29;63.66
63088;BME280;49173;43.164;27.786;2023-02-10T07:00:49;102724.41;;;-3.27;63.99
63088;BME280;49173;43.164;27.786;2023-02-10T07:03:16;102734.22;;;-3.23;64.05
63088;BME280;49173;43.164;27.786;2023-02-10T07:05:42;102734.13;;;-3.24;63.38
63088;BME280;49173;43.164;27.786;2023-02-10T07:08:08;102744.78;;;-3.21;63.71
63088;BME280;49173;43.164;27.786;2023-02-10T07:10:34;102737.09;;;-3.17;63.05
63088;BME280;49173;43.164;27.786;2023-02-10T07:13:00;102734.63;;;-3.12;62.83
63088;BME280;49173;43.164;27.786;2023-02-10T07:15:27;102745.19;;;-3.11;62.74
63088;BME280;49173;43.164;27.786;2023-02-10T07:17:53;102734.63;;;-3.12;62.88
63088;BME280;49173;43.164;27.786;2023-02-10T07:20:19;102739.94;;;-3.11;62.30
63088;BME280;49173;43.164;27.786;2023-02-10T07:22:45;102737.28;;;-3.11;62.16
63088;BME280;49173;43.164;27.786;2023-02-10T07:25:11;102746.22;;;-3.07;62.06
63088;BME280;49173;43.164;27.786;2023-02-10T07:27:37;102747.09;;;-3.07;62.60
63088;BME280;49173;43.164;27.786;2023-02-10T07:30:04;102748.19;;;-3.01;62.06
63088;BME280;49173;43.164;27.786;2023-02-10T07:32:30;102747.53;;;-2.96;61.96
63088;BME280;49173;43.164;27.786;2023-02-10T07:34:56;102754.63;;;-2.93;61.57
63088;BME280;49173;43.164;27.786;2023-02-10T07:37:22;102748.63;;;-2.89;61.28
63088;BME280;49173;43.164;27.786;2023-02-10T07:39:48;102739.94;;;-2.88;61.83
63088;BME280;49173;43.164;27.786;2023-02-10T07:42:13;102744.31;;;-2.89;61.14
63088;BME280;49173;43.164;27.786;2023-02-10T07:44:40;102742.63;;;-2.87;60.86
63088;BME280;49173;43.164;27.786;2023-02-10T07:47:05;102747.09;;;-2.84;60.27
63088;BME280;49173;43.164;27.786;2023-02-10T07:49:31;102742.78;;;-2.82;60.57
63088;BME280;49173;43.164;27.786;2023-02-10T07:51:57;102738.50;;;-2.80;61.02
63088;BME280;49173;43.164;27.786;2023-02-10T07:54:23;102735.81;;;-2.82;60.63
63088;BME280;49173;43.164;27.786;2023-02-10T07:56:49;102736.56;;;-2.84;60.64
63088;BME280;49173;43.164;27.786;2023-02-10T07:59:15;102742.78;;;-2.82;59.82
63088;BME280;49173;43.164;27.786;2023-02-10T08:01:41;102738.44;;;-2.82;60.40
63088;BME280;49173;43.164;27.786;2023-02-10T08:04:09;102741.28;;;-2.76;59.87
63088;BME280;49173;43.164;27.786;2023-02-10T08:06:35;102739.63;;;-2.73;59.57
63088;BME280;49173;43.164;27.786;2023-02-10T08:09:02;102740.63;;;-2.70;59.12
63088;BME280;49173;43.164;27.786;2023-02-10T08:11:28;102742.53;;;-2.66;59.34
63088;BME280;49173;43.164;27.786;2023-02-10T08:13:56;102736.53;;;-2.62;59.15
63088;BME280;49173;43.164;27.786;2023-02-10T08:16:22;102729.72;;;-2.57;59.24
63088;BME280;49173;43.164;27.786;2023-02-10T08:18:48;102736.91;;;-2.53;59.00
63088;BME280;49173;43.164;27.786;2023-02-10T08:21:13;102736.03;;;-2.52;58.33
63088;BME280;49173;43.164;27.786;2023-02-10T08:23:40;102737.03;;;-2.48;58.73
63088;BME280;49173;43.164;27.786;2023-02-10T08:26:08;102740.69;;;-2.44;58.07
63088;BME280;49173;43.164;27.786;2023-02-10T08:28:36;102735.53;;;-2.41;57.55
63088;BME280;49173;43.164;27.786;2023-02-10T08:31:03;102731.44;;;-2.33;58.27
63088;BME280;49173;43.164;27.786;2023-02-10T08:33:30;102725.47;;;-2.29;58.06
63088;BME280;49173;43.164;27.786;2023-02-10T08:35:56;102724.84;;;-2.22;57.76
63088;BME280;49173;43.164;27.786;2023-02-10T08:38:23;102737.13;;;-2.21;57.38
63088;BME280;49173;43.164;27.786;2023-02-10T08:40:56;102734.72;;;-2.15;57.27
63088;BME280;49173;43.164;27.786;2023-02-10T08:43:22;102719.16;;;-2.09;57.33
63088;BME280;49173;43.164;27.786;2023-02-10T08:45:48;102727.31;;;-2.01;55.91
63088;BME280;49173;43.164;27.786;2023-02-10T08:48:14;102724.59;;;-2.04;54.71
63088;BME280;49173;43.164;27.786;2023-02-10T08:50:40;102726.31;;;-2.05;54.50
63088;BME280;49173;43.164;27.786;2023-02-10T08:53:06;102736.06;;;-2.02;54.99
63088;BME280;49173;43.164;27.786;2023-02-10T08:55:33;102729.22;;;-1.97;55.07
63088;BME280;49173;43.164;27.786;2023-02-10T08:57:58;102728.59;;;-1.90;55.53
63088;BME280;49173;43.164;27.786;2023-02-10T09:00:25;102726.22;;;-1.82;54.08
63088;BME280;49173;43.164;27.786;2023-02-10T09:02:51;102728.88;;;-1.81;53.68
63088;BME280;49173;43.164;27.786;2023-02-10T09:05:17;102722.94;;;-1.75;54.23
63088;BME280;49173;43.164;27.786;2023-02-10T09:07:45;102726.56;;;-1.72;53.29
63088;BME280;49173;43.164;27.786;2023-02-10T09:10:13;102720.41;;;-1.72;53.23
63088;BME280;49173;43.164;27.786;2023-02-10T09:12:40;102712.88;;;-1.61;52.87
63088;BME280;49173;43.164;27.786;2023-02-10T09:15:08;102717.31;;;-1.59;52.65
63088;BME280;49173;43.164;27.786;2023-02-10T09:17:34;102718.38;;;-1.54;52.39
63088;BME280;49173;43.164;27.786;2023-02-10T09:20:00;102719.59;;;-1.43;50.74
63088;BME280;49173;43.164;27.786;2023-02-10T09:22:26;102704.03;;;-1.35;50.73
63088;BME280;49173;43.164;27.786;2023-02-10T09:24:52;102700.66;;;-1.31;50.68
63088;BME280;49173;43.164;27.786;2023-02-10T09:27:20;102696.53;;;-1.23;50.64
63088;BME280;49173;43.164;27.786;2023-02-10T09:29:46;102706.31;;;-1.19;50.30
63088;BME280;49173;43.164;27.786;2023-02-10T09:32:13;102698.66;;;-1.11;50.58
63088;BME280;49173;43.164;27.786;2023-02-10T09:34:39;102700.50;;;-1.07;49.78
63088;BME280;49173;43.164;27.786;2023-02-10T09:37:06;102695.34;;;-1.04;49.68
63088;BME280;49173;43.164;27.786;2023-02-10T09:39:33;102686.47;;;-1.06;48.58
63088;BME280;49173;43.164;27.786;2023-02-10T09:42:09;102691.72;;;-1.07;48.86
63088;BME280;49173;43.164;27.786;2023-02-10T09:44:47;102683.91;;;-1.04;48.98
63088;BME280;49173;43.164;27.786;2023-02-10T09:47:43;102681.56;;;-0.94;48.59
63088;BME280;49173;43.164;27.786;2023-02-10T09:50:44;102683.66;;;-0.84;47.97
63088;BME280;49173;43.164;27.786;2023-02-10T10:04:00;102649.00;;;-0.66;46.04
63088;BME280;49173;43.164;27.786;2023-02-10T10:06:55;102649.38;;;-0.52;45.60
63088;BME280;49173;43.164;27.786;2023-02-10T10:09:44;102647.75;;;-0.47;45.67
63088;BME280;49173;43.164;27.786;2023-02-10T10:12:15;102644.22;;;-0.47;45.18
63088;BME280;49173;43.164;27.786;2023-02-10T10:14:41;102637.03;;;-0.53;44.64
63088;BME280;49173;43.164;27.786;2023-02-10T10:22:41;102630.41;;;-0.37;45.07
63088;BME280;49173;43.164;27.786;2023-02-10T10:31:15;102619.69;;;-0.10;45.35
63088;BME280;49173;43.164;27.786;2023-02-10T10:36:21;102624.34;;;0.00;44.27
63088;BME280;49173;43.164;27.786;2023-02-10T10:38:53;102615.63;;;0.04;44.33
63088;BME280;49173;43.164;27.786;2023-02-10T10:41:23;102609.63;;;0.10;44.65
63088;BME280;49173;43.164;27.786;2023-02-10T10:43:52;102601.66;;;0.08;44.05
63088;BME280;49173;43.164;27.786;2023-02-10T10:46:26;102603.31;;;0.05;44.49
63088;BME280;49173;43.164;27.786;2023-02-10T10:48:53;102599.78;;;0.04;44.79
63088;BME280;49173;43.164;27.786;2023-02-10T10:51:19;102600.69;;;0.05;43.71
63088;BME280;49173;43.164;27.786;2023-02-10T10:53:56;102588.34;;;0.04;43.87
63088;BME280;49173;43.164;27.786;2023-02-10T11:01:46;102598.63;;;0.29;45.21
63088;BME280;49173;43.164;27.786;2023-02-10T11:04:16;102591.66;;;0.33;45.42
63088;BME280;49173;43.164;27.786;2023-02-10T11:06:45;102597.81;;;0.32;45.35
63088;BME280;49173;43.164;27.786;2023-02-10T11:09:26;102589.00;;;0.31;45.41
63088;BME280;49173;43.164;27.786;2023-02-10T11:11:54;102590.00;;;0.36;45.06
63088;BME280;49173;43.164;27.786;2023-02-10T11:14:27;102581.09;;;0.33;44.91
63088;BME280;49173;43.164;27.786;2023-02-10T11:16:57;102570.63;;;0.36;45.26
63088;BME280;49173;43.164;27.786;2023-02-10T11:19:29;102564.47;;;0.37;44.88
63088;BME280;49173;43.164;27.786;2023-02-10T11:21:56;102560.09;;;0.39;45.25
63088;BME280;49173;43.164;27.786;2023-02-10T11:24:27;102553.13;;;0.42;45.00
63088;BME280;49173;43.164;27.786;2023-02-10T11:27:17;102550.63;;;0.48;45.34
63088;BME280;49173;43.164;27.786;2023-02-10T11:29:57;102548.09;;;0.53;45.90
63088;BME280;49173;43.164;27.786;2023-02-10T11:32:30;102547.25;;;0.55;45.06
63088;BME280;49173;43.164;27.786;2023-02-10T11:34:59;102535.06;;;0.62;45.32
63088;BME280;49173;43.164;27.786;2023-02-10T11:37:38;102542.09;;;0.62;45.69
63088;BME280;49173;43.164;27.786;2023-02-10T11:40:17;102532.28;;;0.56;45.00
63088;BME280;49173;43.164;27.786;2023-02-10T11:42:48;102529.84;;;0.64;45.34
63088;BME280;49173;43.164;27.786;2023-02-10T11:45:22;102528.16;;;0.70;45.48
63088;BME280;49173;43.164;27.786;2023-02-10T11:48:20;102528.16;;;0.70;46.41
63088;BME280;49173;43.164;27.786;2023-02-10T11:50:45;102522.13;;;0.76;45.93
63088;BME280;49173;43.164;27.786;2023-02-10T11:53:33;102525.03;;;0.88;45.60
63088;BME280;49173;43.164;27.786;2023-02-10T12:04:06;102516.38;;;0.98;46.05
63088;BME280;49173;43.164;27.786;2023-02-10T12:07:20;102510.47;;;1.12;46.75
63088;BME280;49173;43.164;27.786;2023-02-10T12:12:24;102507.28;;;1.29;46.39
63088;BME280;49173;43.164;27.786;2023-02-10T12:14:59;102507.44;;;1.38;46.55
63088;BME280;49173;43.164;27.786;2023-02-10T12:17:37;102500.50;;;1.47;46.60
63088;BME280;49173;43.164;27.786;2023-02-10T12:28:20;102493.94;;;1.76;45.71
63088;BME280;49173;43.164;27.786;2023-02-10T12:34:19;102502.72;;;1.75;45.78
63088;BME280;49173;43.164;27.786;2023-02-10T12:37:13;102503.75;;;1.83;45.90
63088;BME280;49173;43.164;27.786;2023-02-10T12:45:32;102496.81;;;1.91;45.29
63088;BME280;49173;43.164;27.786;2023-02-10T12:51:00;102495.28;;;2.09;44.95
63088;BME280;49173;43.164;27.786;2023-02-10T12:53:33;102489.13;;;2.11;45.02
63088;BME280;49173;43.164;27.786;2023-02-10T12:58:46;102484.81;;;2.18;44.62
63088;BME280;49173;43.164;27.786;2023-02-10T13:01:15;102483.09;;;2.20;45.15
63088;BME280;49173;43.164;27.786;2023-02-10T13:03:44;102484.03;;;2.25;45.03
63088;BME280;49173;43.164;27.786;2023-02-10T13:06:34;102487.53;;;2.24;44.17
63088;BME280;49173;43.164;27.786;2023-02-10T13:14:46;102475.16;;;2.20;44.98
63088;BME280;49173;43.164;27.786;2023-02-10T13:17:14;102473.44;;;2.25;45.75
63088;BME280;49173;43.164;27.786;2023-02-10T13:19:50;102472.59;;;2.26;45.21
63088;BME280;49173;43.164;27.786;2023-02-10T13:25:25;102469.16;;;2.33;44.50
63088;BME280;49173;43.164;27.786;2023-02-10T13:28:25;102480.66;;;2.38;44.52
63088;BME280;49173;43.164;27.786;2023-02-10T13:36:11;102480.72;;;2.43;45.56
63088;BME280;49173;43.164;27.786;2023-02-10T13:38:39;102477.19;;;2.42;44.14
63088;BME280;49173;43.164;27.786;2023-02-10T13:41:23;102476.25;;;2.39;44.12
63088;BME280;49173;43.164;27.786;2023-02-10T13:44:28;102473.66;;;2.42;45.26
63088;BME280;49173;43.164;27.786;2023-02-10T13:49:50;102477.28;;;2.48;44.67
63088;BME280;49173;43.164;27.786;2023-02-10T13:52:23;102478.25;;;2.55;46.48
63088;BME280;49173;43.164;27.786;2023-02-10T13:55:01;102473.84;;;2.57;44.40
63088;BME280;49173;43.164;27.786;2023-02-10T14:00:17;102470.31;;;2.60;46.10
63088;BME280;49173;43.164;27.786;2023-02-10T14:02:43;102473.03;;;2.64;46.27
63088;BME280;49173;43.164;27.786;2023-02-10T14:05:27;102476.56;;;2.63;45.53
63088;BME280;49173;43.164;27.786;2023-02-10T14:07:53;102476.56;;;2.65;45.24
63088;BME280;49173;43.164;27.786;2023-02-10T14:13:21;102467.81;;;2.69;44.60
63088;BME280;49173;43.164;27.786;2023-02-10T14:16:04;102465.97;;;2.66;43.25
63088;BME280;49173;43.164;27.786;2023-02-10T14:18:33;102467.75;;;2.66;43.54
63088;BME280;49173;43.164;27.786;2023-02-10T14:21:03;102465.97;;;2.66;43.47
63088;BME280;49173;43.164;27.786;2023-02-10T14:23:35;102477.47;;;2.65;44.84
63088;BME280;49173;43.164;27.786;2023-02-10T14:26:27;102474.78;;;2.62;44.19
63088;BME280;49173;43.164;27.786;2023-02-10T14:28:54;102470.31;;;2.60;43.17
63088;BME280;49173;43.164;27.786;2023-02-10T14:31:38;102473.78;;;2.53;43.22
63088;BME280;49173;43.164;27.786;2023-02-10T14:34:23;102471.00;;;2.42;44.70
63088;BME280;49173;43.164;27.786;2023-02-10T14:36:54;102468.28;;;2.34;43.68
63088;BME280;49173;43.164;27.786;2023-02-10T14:39:25;102467.41;;;2.35;43.87
63088;BME280;49173;43.164;27.786;2023-02-10T14:41:55;102467.47;;;2.41;43.87
63088;BME280;49173;43.164;27.786;2023-02-10T14:44:44;102467.47;;;2.41;43.32
63088;BME280;49173;43.164;27.786;2023-02-10T14:47:20;102461.22;;;2.36;42.71